La Guardia Airport
KLGA : now visible

Airfield :











YOU CAN JOIN US ON...

 
LOGIN :

Register | Disclaimer

   EN    FR    IT 

 









Legend :    VFR   Marginal VFR   IFR   Intensive IFR   Very Intensive IFR
Visi :
Ceiling :
>= 8 km
>= 3000ft
5 to 8 km
1000 to 3000 ft
1500m to 5 km
500 to 1000 ft
800 to 1500m
200 to 500 ft
< 800m
< 200 ft
Symbols :   Thunderstorms  Fog  Heavy snow  Heavy precipitations  Wind > 20 kt






- Airport Elevation : 21 ft
- IATA code : LGA


KLGA - La Guardia

CURRENT METAR :
  • 042251Z 23011G22KT 10SM FEW047 SCT060 SCT250 28/17 A2980 RMK AO2 PK WND 23030/2201 SLP091 T02780172

EXPIRED METARs :
  • 042151Z 25023G29KT 10SM SCT041 SCT049 SCT250 28/17 A2975 RMK AO2 PK WND 21036/2119 SLP075 T02780172
  • 042051Z 24029G45KT 10SM FEW031 SCT070 SCT250 27/17 A2969 RMK AO2 PK WND 28051/2006 RAE02 SLP053 P0000 60000 T02720172 53068

TAF KLGA
Valid from the 04 at 20:00 until the 06 at 00:00 UTC


042001Z 0420/0524 26028G48KT P6SM SCT017 OVC025 WS020/19070KT
TEMPO 0420/0421 BKN017
FM042200 24023G35KT P6SM SCT035 OVC060
FM050300 22011KT P6SM FEW060 SCT250
FM050800 26006KT P6SM SCT250
FM051800 22011KT P6SM FEW050 SCT250
KZNY FIR / North America



MET'MAP, your aeronautical weather chart ! - Copyright ORBIFLY December 2007 - Disclaimer

ORBIFLY MET'MAP TEAM :

Programming & Development : Alexandra Zaïnal
Concept & original design : Baudouin d'Aumeries
Assistance for programming : Marc-Olivier Méhu
Technical & hardware support : Manuel Goepfert

Contact : metmap@orbifly.com




SOURCES & CREDITS :

   NOAA       Earth
Advisory